sensor_id;sensor_type;location;lat;lon;timestamp;P1;durP1;ratioP1;P2;durP2;ratioP2
23390;SDS011;11868;45.606;5.302;2023-07-20T00:01:27;7.57;;;2.97;;
23390;SDS011;11868;45.606;5.302;2023-07-20T00:03:53;6.50;;;3.08;;
23390;SDS011;11868;45.606;5.302;2023-07-20T00:06:24;6.03;;;2.80;;
23390;SDS011;11868;45.606;5.302;2023-07-20T00:08:52;6.55;;;3.10;;
23390;SDS011;11868;45.606;5.302;2023-07-20T00:11:18;3.50;;;2.65;;
23390;SDS011;11868;45.606;5.302;2023-07-20T00:13:44;5.10;;;2.60;;
23390;SDS011;11868;45.606;5.302;2023-07-20T00:16:09;4.63;;;2.78;;
23390;SDS011;11868;45.606;5.302;2023-07-20T00:18:35;5.70;;;2.70;;
23390;SDS011;11868;45.606;5.302;2023-07-20T00:21:00;4.85;;;2.45;;
23390;SDS011;11868;45.606;5.302;2023-07-20T00:23:26;6.00;;;2.38;;
23390;SDS011;11868;45.606;5.302;2023-07-20T00:25:52;8.15;;;2.80;;
23390;SDS011;11868;45.606;5.302;2023-07-20T00:28:17;6.78;;;3.00;;
23390;SDS011;11868;45.606;5.302;2023-07-20T00:30:42;5.72;;;2.50;;
23390;SDS011;11868;45.606;5.302;2023-07-20T00:33:11;5.15;;;3.03;;
23390;SDS011;11868;45.606;5.302;2023-07-20T00:35:37;4.63;;;2.40;;
23390;SDS011;11868;45.606;5.302;2023-07-20T00:38:05;5.17;;;2.63;;
23390;SDS011;11868;45.606;5.302;2023-07-20T00:40:37;4.80;;;2.40;;
23390;SDS011;11868;45.606;5.302;2023-07-20T00:43:03;7.55;;;2.50;;
23390;SDS011;11868;45.606;5.302;2023-07-20T00:45:28;6.65;;;2.88;;
23390;SDS011;11868;45.606;5.302;2023-07-20T00:47:54;3.83;;;2.30;;
23390;SDS011;11868;45.606;5.302;2023-07-20T00:50:19;4.55;;;2.22;;
23390;SDS011;11868;45.606;5.302;2023-07-20T00:52:45;4.28;;;2.25;;
23390;SDS011;11868;45.606;5.302;2023-07-20T00:55:10;9.63;;;2.20;;
23390;SDS011;11868;45.606;5.302;2023-07-20T00:57:36;13.32;;;2.63;;
23390;SDS011;11868;45.606;5.302;2023-07-20T01:00:01;4.50;;;2.25;;
23390;SDS011;11868;45.606;5.302;2023-07-20T01:02:27;6.63;;;2.28;;
23390;SDS011;11868;45.606;5.302;2023-07-20T01:04:52;4.95;;;2.05;;
23390;SDS011;11868;45.606;5.302;2023-07-20T01:07:23;4.40;;;1.83;;
23390;SDS011;11868;45.606;5.302;2023-07-20T01:10:01;7.00;;;2.35;;
23390;SDS011;11868;45.606;5.302;2023-07-20T01:12:44;5.85;;;2.30;;
23390;SDS011;11868;45.606;5.302;2023-07-20T01:15:12;5.25;;;1.98;;
23390;SDS011;11868;45.606;5.302;2023-07-20T01:17:37;5.57;;;2.08;;
23390;SDS011;11868;45.606;5.302;2023-07-20T01:20:03;4.90;;;1.83;;
23390;SDS011;11868;45.606;5.302;2023-07-20T01:33:32;4.57;;;1.80;;
23390;SDS011;11868;45.606;5.302;2023-07-20T01:35:58;4.28;;;1.92;;
23390;SDS011;11868;45.606;5.302;2023-07-20T01:38:25;4.47;;;2.20;;
23390;SDS011;11868;45.606;5.302;2023-07-20T01:40:50;5.43;;;1.90;;
23390;SDS011;11868;45.606;5.302;2023-07-20T01:43:16;4.47;;;2.20;;
23390;SDS011;11868;45.606;5.302;2023-07-20T01:45:42;7.78;;;1.92;;
23390;SDS011;11868;45.606;5.302;2023-07-20T01:48:08;2.75;;;1.88;;
23390;SDS011;11868;45.606;5.302;2023-07-20T01:50:33;7.75;;;1.85;;
23390;SDS011;11868;45.606;5.302;2023-07-20T01:52:59;3.17;;;1.58;;
23390;SDS011;11868;45.606;5.302;2023-07-20T01:55:25;3.10;;;1.85;;
23390;SDS011;11868;45.606;5.302;2023-07-20T01:57:50;6.35;;;1.75;;
23390;SDS011;11868;45.606;5.302;2023-07-20T02:00:16;2.92;;;1.80;;
23390;SDS011;11868;45.606;5.302;2023-07-20T02:02:43;5.65;;;1.90;;
23390;SDS011;11868;45.606;5.302;2023-07-20T02:05:09;4.38;;;1.80;;
23390;SDS011;11868;45.606;5.302;2023-07-20T02:07:34;7.40;;;1.88;;
23390;SDS011;11868;45.606;5.302;2023-07-20T02:09:59;3.40;;;1.80;;
23390;SDS011;11868;45.606;5.302;2023-07-20T02:12:25;4.95;;;1.67;;
23390;SDS011;11868;45.606;5.302;2023-07-20T02:14:50;2.80;;;1.60;;
23390;SDS011;11868;45.606;5.302;2023-07-20T02:17:16;5.00;;;1.95;;
23390;SDS011;11868;45.606;5.302;2023-07-20T02:19:41;4.53;;;2.10;;
23390;SDS011;11868;45.606;5.302;2023-07-20T02:22:07;5.97;;;1.80;;
23390;SDS011;11868;45.606;5.302;2023-07-20T02:24:33;3.25;;;1.60;;
23390;SDS011;11868;45.606;5.302;2023-07-20T02:26:58;4.10;;;1.63;;
23390;SDS011;11868;45.606;5.302;2023-07-20T02:29:24;4.75;;;1.63;;
23390;SDS011;11868;45.606;5.302;2023-07-20T02:31:49;3.30;;;1.75;;
23390;SDS011;11868;45.606;5.302;2023-07-20T02:34:15;6.97;;;1.75;;
23390;SDS011;11868;45.606;5.302;2023-07-20T02:36:40;3.85;;;1.92;;
23390;SDS011;11868;45.606;5.302;2023-07-20T02:39:07;2.15;;;1.52;;
23390;SDS011;11868;45.606;5.302;2023-07-20T02:41:33;7.00;;;1.92;;
23390;SDS011;11868;45.606;5.302;2023-07-20T02:43:58;2.67;;;1.60;;
23390;SDS011;11868;45.606;5.302;2023-07-20T02:46:24;3.83;;;1.70;;
23390;SDS011;11868;45.606;5.302;2023-07-20T02:48:49;3.47;;;1.60;;
23390;SDS011;11868;45.606;5.302;2023-07-20T02:51:15;3.65;;;1.65;;
23390;SDS011;11868;45.606;5.302;2023-07-20T02:53:40;3.45;;;1.70;;
23390;SDS011;11868;45.606;5.302;2023-07-20T02:56:06;4.80;;;1.52;;
23390;SDS011;11868;45.606;5.302;2023-07-20T02:58:33;3.58;;;1.67;;
23390;SDS011;11868;45.606;5.302;2023-07-20T03:01:01;4.97;;;1.90;;
23390;SDS011;11868;45.606;5.302;2023-07-20T03:03:27;8.73;;;1.73;;
23390;SDS011;11868;45.606;5.302;2023-07-20T03:05:53;4.40;;;1.52;;
23390;SDS011;11868;45.606;5.302;2023-07-20T03:08:19;6.28;;;1.70;;
23390;SDS011;11868;45.606;5.302;2023-07-20T03:10:45;3.65;;;1.70;;
23390;SDS011;11868;45.606;5.302;2023-07-20T03:13:10;4.72;;;1.80;;
23390;SDS011;11868;45.606;5.302;2023-07-20T03:15:35;5.70;;;1.80;;
23390;SDS011;11868;45.606;5.302;2023-07-20T03:18:01;4.78;;;1.70;;
23390;SDS011;11868;45.606;5.302;2023-07-20T03:20:26;3.40;;;1.35;;
23390;SDS011;11868;45.606;5.302;2023-07-20T03:22:51;1.83;;;1.25;;
23390;SDS011;11868;45.606;5.302;2023-07-20T03:25:17;5.25;;;1.77;;
23390;SDS011;11868;45.606;5.302;2023-07-20T03:27:42;4.18;;;1.60;;
23390;SDS011;11868;45.606;5.302;2023-07-20T03:30:08;3.00;;;1.60;;
23390;SDS011;11868;45.606;5.302;2023-07-20T03:32:34;5.03;;;1.52;;
23390;SDS011;11868;45.606;5.302;2023-07-20T03:35:00;2.65;;;1.60;;
23390;SDS011;11868;45.606;5.302;2023-07-20T03:37:25;6.13;;;1.80;;
23390;SDS011;11868;45.606;5.302;2023-07-20T03:39:50;5.63;;;1.88;;
23390;SDS011;11868;45.606;5.302;2023-07-20T03:42:16;3.58;;;1.73;;
23390;SDS011;11868;45.606;5.302;2023-07-20T03:44:41;4.15;;;1.70;;
23390;SDS011;11868;45.606;5.302;2023-07-20T03:47:06;3.75;;;1.52;;
23390;SDS011;11868;45.606;5.302;2023-07-20T03:49:32;13.25;;;1.80;;
23390;SDS011;11868;45.606;5.302;2023-07-20T03:51:57;3.08;;;1.83;;
23390;SDS011;11868;45.606;5.302;2023-07-20T03:54:22;4.60;;;1.73;;
23390;SDS011;11868;45.606;5.302;2023-07-20T03:56:48;3.03;;;1.73;;
23390;SDS011;11868;45.606;5.302;2023-07-20T03:59:13;3.63;;;1.58;;
23390;SDS011;11868;45.606;5.302;2023-07-20T04:01:39;4.32;;;1.90;;
23390;SDS011;11868;45.606;5.302;2023-07-20T04:04:05;5.00;;;1.58;;
23390;SDS011;11868;45.606;5.302;2023-07-20T04:06:32;3.05;;;1.58;;
23390;SDS011;11868;45.606;5.302;2023-07-20T04:08:57;5.85;;;1.70;;
23390;SDS011;11868;45.606;5.302;2023-07-20T04:11:22;2.88;;;1.58;;
23390;SDS011;11868;45.606;5.302;2023-07-20T04:13:48;3.47;;;1.95;;
23390;SDS011;11868;45.606;5.302;2023-07-20T04:16:13;3.67;;;1.70;;
23390;SDS011;11868;45.606;5.302;2023-07-20T04:18:38;4.45;;;1.50;;
23390;SDS011;11868;45.606;5.302;2023-07-20T04:21:03;4.70;;;1.58;;
23390;SDS011;11868;45.606;5.302;2023-07-20T04:23:29;5.00;;;1.70;;
23390;SDS011;11868;45.606;5.302;2023-07-20T04:25:54;6.15;;;1.52;;
23390;SDS011;11868;45.606;5.302;2023-07-20T04:28:19;3.33;;;1.60;;
23390;SDS011;11868;45.606;5.302;2023-07-20T04:30:48;4.20;;;1.70;;
23390;SDS011;11868;45.606;5.302;2023-07-20T04:33:14;7.40;;;1.80;;
23390;SDS011;11868;45.606;5.302;2023-07-20T04:38:10;3.15;;;1.58;;
23390;SDS011;11868;45.606;5.302;2023-07-20T04:40:36;3.35;;;1.60;;
23390;SDS011;11868;45.606;5.302;2023-07-20T04:43:01;4.32;;;1.70;;
23390;SDS011;11868;45.606;5.302;2023-07-20T04:45:26;4.60;;;1.70;;
23390;SDS011;11868;45.606;5.302;2023-07-20T04:47:52;7.85;;;1.60;;
23390;SDS011;11868;45.606;5.302;2023-07-20T04:50:17;8.55;;;1.60;;
23390;SDS011;11868;45.606;5.302;2023-07-20T04:52:43;5.57;;;1.73;;
23390;SDS011;11868;45.606;5.302;2023-07-20T04:55:08;4.28;;;1.80;;
23390;SDS011;11868;45.606;5.302;2023-07-20T04:57:34;4.07;;;1.60;;
23390;SDS011;11868;45.606;5.302;2023-07-20T04:59:59;6.88;;;1.88;;
23390;SDS011;11868;45.606;5.302;2023-07-20T05:02:24;7.47;;;1.90;;
23390;SDS011;11868;45.606;5.302;2023-07-20T05:04:50;8.07;;;1.77;;
23390;SDS011;11868;45.606;5.302;2023-07-20T05:07:16;3.88;;;1.48;;
23390;SDS011;11868;45.606;5.302;2023-07-20T05:09:41;4.00;;;1.70;;
23390;SDS011;11868;45.606;5.302;2023-07-20T05:12:06;3.55;;;1.58;;
23390;SDS011;11868;45.606;5.302;2023-07-20T05:14:32;6.10;;;1.45;;
23390;SDS011;11868;45.606;5.302;2023-07-20T05:16:57;6.47;;;1.77;;
23390;SDS011;11868;45.606;5.302;2023-07-20T05:19:24;3.30;;;1.60;;
23390;SDS011;11868;45.606;5.302;2023-07-20T05:21:49;3.50;;;1.48;;
23390;SDS011;11868;45.606;5.302;2023-07-20T05:24:15;2.65;;;1.50;;
23390;SDS011;11868;45.606;5.302;2023-07-20T05:26:40;5.80;;;1.40;;
23390;SDS011;11868;45.606;5.302;2023-07-20T05:29:05;7.55;;;1.63;;
23390;SDS011;11868;45.606;5.302;2023-07-20T05:31:31;7.85;;;1.52;;
23390;SDS011;11868;45.606;5.302;2023-07-20T05:33:56;3.72;;;1.60;;
23390;SDS011;11868;45.606;5.302;2023-07-20T05:36:22;8.73;;;1.45;;
23390;SDS011;11868;45.606;5.302;2023-07-20T05:38:47;5.05;;;1.80;;
23390;SDS011;11868;45.606;5.302;2023-07-20T05:41:14;5.43;;;2.22;;
23390;SDS011;11868;45.606;5.302;2023-07-20T05:43:39;3.97;;;1.65;;
23390;SDS011;11868;45.606;5.302;2023-07-20T05:46:04;5.38;;;1.85;;
23390;SDS011;11868;45.606;5.302;2023-07-20T05:48:30;5.13;;;1.65;;
23390;SDS011;11868;45.606;5.302;2023-07-20T05:50:55;6.90;;;1.98;;
23390;SDS011;11868;45.606;5.302;2023-07-20T05:53:21;4.65;;;1.40;;
23390;SDS011;11868;45.606;5.302;2023-07-20T05:55:51;2.22;;;1.60;;
23390;SDS011;11868;45.606;5.302;2023-07-20T05:58:17;4.75;;;1.50;;
23390;SDS011;11868;45.606;5.302;2023-07-20T06:00:42;4.28;;;1.88;;
23390;SDS011;11868;45.606;5.302;2023-07-20T06:03:08;5.40;;;1.60;;
23390;SDS011;11868;45.606;5.302;2023-07-20T06:05:33;5.43;;;1.70;;
23390;SDS011;11868;45.606;5.302;2023-07-20T06:07:58;6.50;;;1.73;;
23390;SDS011;11868;45.606;5.302;2023-07-20T06:10:25;3.97;;;1.90;;
23390;SDS011;11868;45.606;5.302;2023-07-20T06:12:51;3.20;;;1.63;;
23390;SDS011;11868;45.606;5.302;2023-07-20T06:15:31;4.50;;;1.65;;
23390;SDS011;11868;45.606;5.302;2023-07-20T06:17:57;2.92;;;1.60;;
23390;SDS011;11868;45.606;5.302;2023-07-20T06:20:23;5.93;;;1.73;;
23390;SDS011;11868;45.606;5.302;2023-07-20T06:22:49;3.97;;;1.67;;
23390;SDS011;11868;45.606;5.302;2023-07-20T06:25:14;4.07;;;2.08;;
23390;SDS011;11868;45.606;5.302;2023-07-20T06:27:39;4.78;;;1.80;;
23390;SDS011;11868;45.606;5.302;2023-07-20T06:30:05;3.92;;;1.90;;
23390;SDS011;11868;45.606;5.302;2023-07-20T06:32:31;4.22;;;1.77;;
23390;SDS011;11868;45.606;5.302;2023-07-20T06:34:56;4.20;;;1.60;;
23390;SDS011;11868;45.606;5.302;2023-07-20T06:37:21;4.40;;;1.45;;
23390;SDS011;11868;45.606;5.302;2023-07-20T06:39:47;3.20;;;1.75;;
23390;SDS011;11868;45.606;5.302;2023-07-20T06:42:12;8.05;;;1.90;;
23390;SDS011;11868;45.606;5.302;2023-07-20T06:44:37;4.88;;;2.55;;
23390;SDS011;11868;45.606;5.302;2023-07-20T06:47:03;4.25;;;1.90;;
23390;SDS011;11868;45.606;5.302;2023-07-20T06:49:28;3.85;;;1.67;;
23390;SDS011;11868;45.606;5.302;2023-07-20T06:51:54;4.40;;;1.92;;
23390;SDS011;11868;45.606;5.302;2023-07-20T06:54:19;2.58;;;1.63;;
23390;SDS011;11868;45.606;5.302;2023-07-20T06:56:45;4.50;;;1.35;;
23390;SDS011;11868;45.606;5.302;2023-07-20T06:59:10;4.72;;;1.60;;
23390;SDS011;11868;45.606;5.302;2023-07-20T07:01:35;7.45;;;1.70;;
23390;SDS011;11868;45.606;5.302;2023-07-20T07:04:01;5.60;;;1.92;;
23390;SDS011;11868;45.606;5.302;2023-07-20T07:06:26;5.38;;;1.65;;
23390;SDS011;11868;45.606;5.302;2023-07-20T07:08:52;5.90;;;1.73;;
23390;SDS011;11868;45.606;5.302;2023-07-20T07:11:18;2.25;;;1.50;;
23390;SDS011;11868;45.606;5.302;2023-07-20T07:13:43;3.53;;;1.60;;
23390;SDS011;11868;45.606;5.302;2023-07-20T07:16:11;6.95;;;1.50;;
23390;SDS011;11868;45.606;5.302;2023-07-20T07:18:37;2.35;;;1.48;;
23390;SDS011;11868;45.606;5.302;2023-07-20T07:21:02;3.15;;;1.42;;
23390;SDS011;11868;45.606;5.302;2023-07-20T07:23:27;5.10;;;1.73;;
23390;SDS011;11868;45.606;5.302;2023-07-20T07:25:53;4.93;;;1.55;;
23390;SDS011;11868;45.606;5.302;2023-07-20T07:28:18;8.15;;;1.45;;
23390;SDS011;11868;45.606;5.302;2023-07-20T07:30:44;3.45;;;1.45;;
23390;SDS011;11868;45.606;5.302;2023-07-20T07:33:09;14.25;;;1.60;;
23390;SDS011;11868;45.606;5.302;2023-07-20T07:35:35;5.50;;;1.60;;
23390;SDS011;11868;45.606;5.302;2023-07-20T07:38:01;3.67;;;1.67;;
23390;SDS011;11868;45.606;5.302;2023-07-20T07:40:26;3.25;;;1.65;;
23390;SDS011;11868;45.606;5.302;2023-07-20T07:42:51;5.63;;;1.50;;
23390;SDS011;11868;45.606;5.302;2023-07-20T07:45:17;5.38;;;1.60;;
23390;SDS011;11868;45.606;5.302;2023-07-20T07:47:42;7.00;;;1.70;;
23390;SDS011;11868;45.606;5.302;2023-07-20T07:50:07;4.45;;;1.60;;
23390;SDS011;11868;45.606;5.302;2023-07-20T07:52:34;7.22;;;1.50;;
23390;SDS011;11868;45.606;5.302;2023-07-20T07:54:59;9.20;;;1.67;;
23390;SDS011;11868;45.606;5.302;2023-07-20T07:57:25;4.00;;;1.58;;
23390;SDS011;11868;45.606;5.302;2023-07-20T07:59:50;6.93;;;1.70;;
23390;SDS011;11868;45.606;5.302;2023-07-20T08:02:16;3.10;;;1.45;;
23390;SDS011;11868;45.606;5.302;2023-07-20T08:04:41;7.63;;;1.90;;
23390;SDS011;11868;45.606;5.302;2023-07-20T08:07:06;3.45;;;1.60;;
23390;SDS011;11868;45.606;5.302;2023-07-20T08:09:32;3.60;;;1.80;;
23390;SDS011;11868;45.606;5.302;2023-07-20T08:11:57;3.22;;;1.73;;
23390;SDS011;11868;45.606;5.302;2023-07-20T08:14:23;3.63;;;1.55;;
23390;SDS011;11868;45.606;5.302;2023-07-20T08:16:48;2.13;;;1.20;;
23390;SDS011;11868;45.606;5.302;2023-07-20T08:19:14;5.70;;;1.23;;
23390;SDS011;11868;45.606;5.302;2023-07-20T08:21:39;3.67;;;1.20;;
23390;SDS011;11868;45.606;5.302;2023-07-20T08:24:05;3.28;;;1.20;;
23390;SDS011;11868;45.606;5.302;2023-07-20T08:26:30;3.88;;;1.30;;
23390;SDS011;11868;45.606;5.302;2023-07-20T08:28:56;1.63;;;1.13;;
23390;SDS011;11868;45.606;5.302;2023-07-20T08:31:21;1.88;;;1.15;;
23390;SDS011;11868;45.606;5.302;2023-07-20T08:33:46;1.90;;;1.00;;
23390;SDS011;11868;45.606;5.302;2023-07-20T08:36:12;2.00;;;1.50;;
23390;SDS011;11868;45.606;5.302;2023-07-20T08:38:37;3.28;;;1.30;;
23390;SDS011;11868;45.606;5.302;2023-07-20T08:41:02;3.65;;;1.10;;
23390;SDS011;11868;45.606;5.302;2023-07-20T08:43:28;3.40;;;1.40;;
23390;SDS011;11868;45.606;5.302;2023-07-20T08:45:54;1.60;;;1.30;;
23390;SDS011;11868;45.606;5.302;2023-07-20T08:48:20;3.08;;;1.10;;
23390;SDS011;11868;45.606;5.302;2023-07-20T08:50:45;2.92;;;1.30;;
23390;SDS011;11868;45.606;5.302;2023-07-20T08:53:12;2.03;;;1.20;;
23390;SDS011;11868;45.606;5.302;2023-07-20T08:55:39;2.20;;;1.50;;
23390;SDS011;11868;45.606;5.302;2023-07-20T08:58:04;6.88;;;1.50;;
23390;SDS011;11868;45.606;5.302;2023-07-20T09:00:32;3.90;;;1.40;;
23390;SDS011;11868;45.606;5.302;2023-07-20T09:02:57;4.57;;;1.35;;
23390;SDS011;11868;45.606;5.302;2023-07-20T09:05:25;3.58;;;1.42;;
23390;SDS011;11868;45.606;5.302;2023-07-20T09:07:51;3.78;;;1.48;;
23390;SDS011;11868;45.606;5.302;2023-07-20T09:10:18;5.20;;;1.30;;
23390;SDS011;11868;45.606;5.302;2023-07-20T09:12:45;5.95;;;1.33;;
23390;SDS011;11868;45.606;5.302;2023-07-20T09:15:11;6.32;;;1.40;;
23390;SDS011;11868;45.606;5.302;2023-07-20T09:17:37;6.63;;;1.60;;
23390;SDS011;11868;45.606;5.302;2023-07-20T09:20:06;5.07;;;1.38;;
23390;SDS011;11868;45.606;5.302;2023-07-20T09:22:38;2.40;;;1.33;;
23390;SDS011;11868;45.606;5.302;2023-07-20T09:25:09;2.60;;;1.30;;
23390;SDS011;11868;45.606;5.302;2023-07-20T09:27:40;2.75;;;1.20;;
23390;SDS011;11868;45.606;5.302;2023-07-20T09:30:07;2.78;;;1.45;;
23390;SDS011;11868;45.606;5.302;2023-07-20T09:32:43;3.90;;;1.58;;
23390;SDS011;11868;45.606;5.302;2023-07-20T09:37:39;2.70;;;1.10;;
23390;SDS011;11868;45.606;5.302;2023-07-20T09:40:06;4.18;;;1.77;;
23390;SDS011;11868;45.606;5.302;2023-07-20T09:42:32;10.25;;;1.63;;
23390;SDS011;11868;45.606;5.302;2023-07-20T09:44:57;6.15;;;1.70;;
23390;SDS011;11868;45.606;5.302;2023-07-20T09:47:23;4.65;;;1.80;;
23390;SDS011;11868;45.606;5.302;2023-07-20T09:49:48;5.10;;;1.77;;
23390;SDS011;11868;45.606;5.302;2023-07-20T09:52:14;2.65;;;1.30;;
23390;SDS011;11868;45.606;5.302;2023-07-20T09:54:40;3.28;;;1.40;;
23390;SDS011;11868;45.606;5.302;2023-07-20T09:57:09;5.75;;;1.88;;
23390;SDS011;11868;45.606;5.302;2023-07-20T09:59:37;6.90;;;1.65;;
23390;SDS011;11868;45.606;5.302;2023-07-20T10:02:03;3.83;;;1.70;;
23390;SDS011;11868;45.606;5.302;2023-07-20T10:06:56;8.83;;;1.47;;
23390;SDS011;11868;45.606;5.302;2023-07-20T10:09:24;2.45;;;1.50;;
23390;SDS011;11868;45.606;5.302;2023-07-20T10:11:50;3.25;;;1.30;;
23390;SDS011;11868;45.606;5.302;2023-07-20T10:14:19;3.63;;;1.67;;
23390;SDS011;11868;45.606;5.302;2023-07-20T10:16:51;4.10;;;1.13;;
23390;SDS011;11868;45.606;5.302;2023-07-20T10:19:25;4.00;;;1.35;;
23390;SDS011;11868;45.606;5.302;2023-07-20T10:21:56;5.18;;;1.63;;
23390;SDS011;11868;45.606;5.302;2023-07-20T10:24:26;3.28;;;1.30;;
23390;SDS011;11868;45.606;5.302;2023-07-20T10:26:55;2.80;;;1.33;;
23390;SDS011;11868;45.606;5.302;2023-07-20T10:29:20;3.65;;;1.45;;
23390;SDS011;11868;45.606;5.302;2023-07-20T10:31:46;3.65;;;1.30;;
23390;SDS011;11868;45.606;5.302;2023-07-20T10:34:12;1.45;;;1.08;;
23390;SDS011;11868;45.606;5.302;2023-07-20T10:36:43;4.05;;;1.40;;
23390;SDS011;11868;45.606;5.302;2023-07-20T10:41:49;2.17;;;1.30;;
23390;SDS011;11868;45.606;5.302;2023-07-20T10:44:15;3.10;;;1.40;;
23390;SDS011;11868;45.606;5.302;2023-07-20T10:46:45;3.53;;;1.30;;
23390;SDS011;11868;45.606;5.302;2023-07-20T10:49:11;6.15;;;1.35;;
23390;SDS011;11868;45.606;5.302;2023-07-20T10:54:07;2.28;;;1.20;;
23390;SDS011;11868;45.606;5.302;2023-07-20T10:56:34;2.20;;;1.27;;
23390;SDS011;11868;45.606;5.302;2023-07-20T10:58:59;1.67;;;1.20;;
23390;SDS011;11868;45.606;5.302;2023-07-20T11:01:29;6.47;;;1.20;;
23390;SDS011;11868;45.606;5.302;2023-07-20T11:03:58;2.38;;;1.17;;
23390;SDS011;11868;45.606;5.302;2023-07-20T11:11:36;2.78;;;1.40;;
23390;SDS011;11868;45.606;5.302;2023-07-20T11:16:44;4.65;;;1.35;;
23390;SDS011;11868;45.606;5.302;2023-07-20T11:19:17;3.53;;;1.20;;
23390;SDS011;11868;45.606;5.302;2023-07-20T11:21:44;3.17;;;1.42;;
23390;SDS011;11868;45.606;5.302;2023-07-20T11:24:11;2.45;;;1.40;;
23390;SDS011;11868;45.606;5.302;2023-07-20T11:26:48;3.63;;;1.65;;
23390;SDS011;11868;45.606;5.302;2023-07-20T11:29:19;2.40;;;1.40;;
23390;SDS011;11868;45.606;5.302;2023-07-20T11:31:46;3.05;;;1.13;;
23390;SDS011;11868;45.606;5.302;2023-07-20T11:34:13;4.95;;;1.30;;
23390;SDS011;11868;45.606;5.302;2023-07-20T11:36:40;7.13;;;1.23;;
23390;SDS011;11868;45.606;5.302;2023-07-20T11:39:06;5.90;;;1.52;;
23390;SDS011;11868;45.606;5.302;2023-07-20T11:41:34;3.45;;;1.40;;
23390;SDS011;11868;45.606;5.302;2023-07-20T11:43:59;2.25;;;1.25;;
23390;SDS011;11868;45.606;5.302;2023-07-20T11:46:25;2.35;;;1.30;;
23390;SDS011;11868;45.606;5.302;2023-07-20T11:48:55;2.42;;;1.30;;
23390;SDS011;11868;45.606;5.302;2023-07-20T11:51:22;7.10;;;1.52;;
23390;SDS011;11868;45.606;5.302;2023-07-20T11:53:48;3.15;;;1.30;;
23390;SDS011;11868;45.606;5.302;2023-07-20T11:56:13;22.10;;;1.70;;
23390;SDS011;11868;45.606;5.302;2023-07-20T11:58:44;9.95;;;1.30;;
23390;SDS011;11868;45.606;5.302;2023-07-20T12:01:11;3.78;;;1.27;;
23390;SDS011;11868;45.606;5.302;2023-07-20T12:03:39;4.10;;;1.27;;
23390;SDS011;11868;45.606;5.302;2023-07-20T12:06:07;4.57;;;1.20;;
23390;SDS011;11868;45.606;5.302;2023-07-20T12:08:33;7.47;;;1.73;;
23390;SDS011;11868;45.606;5.302;2023-07-20T12:10:58;4.70;;;1.60;;
23390;SDS011;11868;45.606;5.302;2023-07-20T12:13:24;3.05;;;1.30;;
23390;SDS011;11868;45.606;5.302;2023-07-20T12:15:52;4.28;;;1.40;;
23390;SDS011;11868;45.606;5.302;2023-07-20T12:18:22;5.28;;;1.10;;
23390;SDS011;11868;45.606;5.302;2023-07-20T12:20:47;3.15;;;1.20;;
23390;SDS011;11868;45.606;5.302;2023-07-20T12:23:13;3.40;;;1.30;;
23390;SDS011;11868;45.606;5.302;2023-07-20T12:25:39;4.75;;;1.50;;
23390;SDS011;11868;45.606;5.302;2023-07-20T12:28:09;2.25;;;1.20;;
23390;SDS011;11868;45.606;5.302;2023-07-20T12:30:36;3.15;;;1.20;;
23390;SDS011;11868;45.606;5.302;2023-07-20T12:33:02;4.68;;;1.35;;
23390;SDS011;11868;45.606;5.302;2023-07-20T12:35:29;4.90;;;1.35;;
23390;SDS011;11868;45.606;5.302;2023-07-20T12:37:54;3.75;;;1.30;;
23390;SDS011;11868;45.606;5.302;2023-07-20T12:40:20;3.55;;;1.60;;
23390;SDS011;11868;45.606;5.302;2023-07-20T12:42:46;4.75;;;1.60;;
23390;SDS011;11868;45.606;5.302;2023-07-20T12:45:11;1.48;;;1.10;;
23390;SDS011;11868;45.606;5.302;2023-07-20T12:47:38;6.45;;;1.55;;
23390;SDS011;11868;45.606;5.302;2023-07-20T12:50:04;4.30;;;1.40;;
23390;SDS011;11868;45.606;5.302;2023-07-20T12:52:31;3.72;;;1.27;;
23390;SDS011;11868;45.606;5.302;2023-07-20T12:54:56;5.72;;;1.58;;
23390;SDS011;11868;45.606;5.302;2023-07-20T12:57:22;4.20;;;1.33;;
23390;SDS011;11868;45.606;5.302;2023-07-20T12:59:47;4.07;;;1.45;;
23390;SDS011;11868;45.606;5.302;2023-07-20T13:02:13;2.97;;;1.25;;
23390;SDS011;11868;45.606;5.302;2023-07-20T13:04:38;6.28;;;1.33;;
23390;SDS011;11868;45.606;5.302;2023-07-20T13:07:03;6.28;;;1.35;;
23390;SDS011;11868;45.606;5.302;2023-07-20T13:09:29;4.40;;;1.20;;
23390;SDS011;11868;45.606;5.302;2023-07-20T13:11:54;3.30;;;1.25;;
23390;SDS011;11868;45.606;5.302;2023-07-20T13:14:22;4.95;;;1.40;;
23390;SDS011;11868;45.606;5.302;2023-07-20T13:16:47;4.50;;;1.20;;
23390;SDS011;11868;45.606;5.302;2023-07-20T13:19:12;3.40;;;1.50;;
23390;SDS011;11868;45.606;5.302;2023-07-20T13:21:38;1.60;;;1.25;;
23390;SDS011;11868;45.606;5.302;2023-07-20T13:24:03;2.80;;;1.30;;
23390;SDS011;11868;45.606;5.302;2023-07-20T13:26:29;3.78;;;1.25;;
23390;SDS011;11868;45.606;5.302;2023-07-20T13:28:54;4.78;;;1.48;;
23390;SDS011;11868;45.606;5.302;2023-07-20T13:31:20;5.25;;;1.45;;
23390;SDS011;11868;45.606;5.302;2023-07-20T13:33:45;1.65;;;1.30;;
23390;SDS011;11868;45.606;5.302;2023-07-20T13:36:11;4.35;;;1.73;;
23390;SDS011;11868;45.606;5.302;2023-07-20T13:38:36;4.65;;;1.40;;
23390;SDS011;11868;45.606;5.302;2023-07-20T13:41:02;4.60;;;1.40;;
23390;SDS011;11868;45.606;5.302;2023-07-20T13:43:27;8.02;;;1.58;;
23390;SDS011;11868;45.606;5.302;2023-07-20T13:45:52;5.55;;;1.38;;
23390;SDS011;11868;45.606;5.302;2023-07-20T13:48:18;3.65;;;1.20;;
23390;SDS011;11868;45.606;5.302;2023-07-20T13:50:46;2.00;;;1.30;;
23390;SDS011;11868;45.606;5.302;2023-07-20T13:53:11;1.55;;;1.30;;
23390;SDS011;11868;45.606;5.302;2023-07-20T13:55:38;4.57;;;1.48;;
23390;SDS011;11868;45.606;5.302;2023-07-20T13:58:03;3.10;;;1.50;;
23390;SDS011;11868;45.606;5.302;2023-07-20T14:00:29;4.55;;;1.35;;
23390;SDS011;11868;45.606;5.302;2023-07-20T14:02:58;2.00;;;1.23;;
23390;SDS011;11868;45.606;5.302;2023-07-20T14:05:26;3.25;;;1.38;;
23390;SDS011;11868;45.606;5.302;2023-07-20T14:07:51;2.67;;;1.45;;
23390;SDS011;11868;45.606;5.302;2023-07-20T14:10:17;4.18;;;1.50;;
23390;SDS011;11868;45.606;5.302;2023-07-20T14:12:42;5.03;;;1.45;;
23390;SDS011;11868;45.606;5.302;2023-07-20T14:15:09;3.55;;;1.30;;
23390;SDS011;11868;45.606;5.302;2023-07-20T14:17:35;5.70;;;1.60;;
23390;SDS011;11868;45.606;5.302;2023-07-20T14:20:00;6.75;;;1.50;;
23390;SDS011;11868;45.606;5.302;2023-07-20T14:22:26;4.90;;;1.45;;
23390;SDS011;11868;45.606;5.302;2023-07-20T14:24:51;3.53;;;1.48;;
23390;SDS011;11868;45.606;5.302;2023-07-20T14:27:16;4.95;;;1.40;;
23390;SDS011;11868;45.606;5.302;2023-07-20T14:29:42;6.63;;;1.42;;
23390;SDS011;11868;45.606;5.302;2023-07-20T14:32:07;2.83;;;1.50;;
23390;SDS011;11868;45.606;5.302;2023-07-20T14:34:32;1.30;;;1.10;;
23390;SDS011;11868;45.606;5.302;2023-07-20T14:36:59;2.20;;;1.50;;
23390;SDS011;11868;45.606;5.302;2023-07-20T14:39:25;2.50;;;1.30;;
23390;SDS011;11868;45.606;5.302;2023-07-20T14:41:50;1.58;;;1.20;;
23390;SDS011;11868;45.606;5.302;2023-07-20T14:44:16;5.25;;;1.40;;
23390;SDS011;11868;45.606;5.302;2023-07-20T14:46:41;3.30;;;1.30;;
23390;SDS011;11868;45.606;5.302;2023-07-20T14:49:07;2.35;;;1.33;;
23390;SDS011;11868;45.606;5.302;2023-07-20T14:51:32;3.85;;;1.40;;
23390;SDS011;11868;45.606;5.302;2023-07-20T14:53:58;7.05;;;1.40;;
23390;SDS011;11868;45.606;5.302;2023-07-20T14:56:25;4.40;;;1.20;;
23390;SDS011;11868;45.606;5.302;2023-07-20T14:58:51;5.82;;;1.38;;
23390;SDS011;11868;45.606;5.302;2023-07-20T15:01:17;2.35;;;1.13;;
23390;SDS011;11868;45.606;5.302;2023-07-20T15:03:42;3.42;;;1.20;;
23390;SDS011;11868;45.606;5.302;2023-07-20T15:06:11;4.18;;;1.30;;
23390;SDS011;11868;45.606;5.302;2023-07-20T15:08:36;1.92;;;1.15;;
23390;SDS011;11868;45.606;5.302;2023-07-20T15:11:02;2.03;;;1.20;;
23390;SDS011;11868;45.606;5.302;2023-07-20T15:13:28;1.33;;;1.20;;